AirNav   Everest Fuels
 
 966 users online  

5CL4 Natividad Medical Center Heliport
Salinas, California, USA

GOING TO SALINAS?


FAA INFORMATION EFFECTIVE 07 NOVEMBER 2019

Location

FAA Identifier: 5CL4
Lat/Long: 36-41-50.9500N 121-38-04.3000W
36-41.849167N 121-38.071667W
36.6974861,-121.6345278
(estimated)
Elevation: 70 ft. / 21 m (estimated)
Variation: 13E (1995)
From city: 2 miles SW of SALINAS, CA
Time zone: UTC -8 (UTC -7 during Daylight Saving Time)
Zip code: 93906

Heliport Operations

Heliport use: Private use, MEDICAL USE.
Activation date: 09/1999
Control tower: no
ARTCC: OAKLAND CENTER
FSS: OAKLAND FLIGHT SERVICE STATION
Attendance: CONTINUOUS
Wind indicator: lighted
Segmented circle: no
Lights: RDO-CTL

Heliport Communications

UNICOM: 123.075
WX ASOS at SNS (2.5 nm SE): PHONE 831-422-2830
WX AWOS-3PT at OAR (6 nm W): 134.025 (831-384-2967)
WX ASOS at MRY (12 nm SW): PHONE 831-642-0241
WX AWOS-3 at CVH (16 nm NE): 120.425 (831-636-4394)
WX ASOS at WVI (16 nm NW): 132.275 (831-724-8794)

Nearby radio navigation aids

VOR radial/distance  VOR name  Freq  Var
SNSr306/2.5SALINAS VORTAC117.3017E
BSRr345/31.0BIG SUR VORTAC114.0016E

 
NDB name  Hdg/Dist  Freq  Var  ID
CHUALAR312/14.626316EUAD ..- .- -..

Heliport Services

Runway Information

Helipad H1

Dimensions: 74 x 74 ft. / 23 x 23 m
Surface: concrete, in good condition
Runway edge lights: PERI
ACTVT PERIMETER LGTS, FLOOD LGTS AND WINDCONE - UNICOM 123.075
Operational restrictions: FATO MEASURES 108 FT DIAMETER.
Latitude: 36-41.849167N
Longitude: 121-38.071667W
Elevation: 70.0 ft.
Traffic pattern: leftleft
Markings: basic, in fair condition

Heliport Ownership and Management from official FAA records

Ownership: Privately-owned
Owner: NATIVIDAD MEDICAL CENTER
1441 CONSTITUTION BLVD
SALINAS, CA 93906
Phone 831-755-4111
Manager: JEFFERY A. CLEEK
1441 CONSTITUTION BLVD BLDG 900
SALINAS, CA 93906
Phone (831) 783-2614

Additional Remarks

FOR CD CTC NORCAL APCH AT 916-361-3748.

Instrument Procedures

There are no published instrument procedures at 5CL4.

Some nearby airports with instrument procedures:

KSNS - Salinas Municipal Airport (2 nm SE)
KOAR - Marina Municipal Airport (6 nm W)
KMRY - Monterey Regional Airport (12 nm SW)
KCVH - Hollister Municipal Airport (16 nm NE)
KWVI - Watsonville Municipal Airport (16 nm NW)
 
Loc | Ops | Rwys | IFR | FBO | Links
Com | Nav | Svcs | Stats | Notes
Area around 5CL4 (Natividad Medical Center Heliport)
 
Road maps at: MapQuest Bing Google
 
Aerial photo
No photo
 
Sectional chart

 
Airport distance calculator
Flying to Natividad Medical Center Heliport? Find the distance to fly.

From to 5CL4

Sunrise and sunset
Times for 11-Nov-2019
 Local
(UTC-8)
 Zulu
(UTC)
Morning civil twilight06:1414:14
Sunrise06:4214:42
Sunset17:0001:00
Evening civil twilight17:2701:27

Current date and time
Zulu (UTC)  11-Nov-2019 23:58:01
Local (UTC-8)  11-Nov-2019 15:58:01
 
METAR
KSNS 
2nm SE 
112353Z 33011KT 10SM CLR 18/11 A3002 RMK AO2 SLP174 T01780106 10250 20178 53005
KOAR 
7nm W 
134.025 831-384-2967
No observation available
KMRY 
12nm SW 
112354Z 00000KT 10SM CLR 17/11 A3003 RMK AO2 SLP180 T01720111 10211 20172 53001
KWVI 
16nm NW 
112353Z AUTO 20006KT 10SM CLR 22/07 A3003 RMK AO2 SLP167 T02170072 10278 20178 53004
KCVH 
16nm NE 
112355Z AUTO 36009KT 10SM CLR 28/M01 A3000 RMK A01
TAF
KSNS 
2nm SE 
111724Z 1118/1218 11008KT P6SM FEW250 FM112100 30007KT P6SM SCT250 FM120300 VRB03KT P6SM SCT250 TEMPO 1203/1207 6SM BR BKN005 FM120700 12005KT P6SM SCT200 FM121600 11008KT P6SM SCT200
KMRY 
12nm SW 
111724Z 1118/1218 VRB04KT P6SM FEW250 FM112000 28005KT P6SM SCT250 FM120300 11003KT P6SM SCT250 TEMPO 1203/1207 6SM BR BKN005
NOTAMs
Click for the latest NOTAMs
NOTAMs are issued by the DoD/FAA and will open in a separate window not controlled by AirNav.

 

 
 

Would you like to see your business listed on this page?

 If your business provides an interesting product or service to pilots, flight crews, aircraft, or users of the Natividad Medical Center Heliport, you should consider listing it here.  To start the listing process, click on the button below
 
Add a business
 

Other Pages about Natividad Medical Center Heliport

Update a link
 
Copyright © AirNav, LLC. All rights reserved. Privacy Policy  Contact